createdAt,value
2022-08-31T00:00:29.301Z,15.60
2022-08-31T00:03:14.900Z,15.50
2022-08-31T00:05:41.727Z,15.60
2022-08-31T00:08:08.865Z,15.60
2022-08-31T00:10:37.226Z,15.60
2022-08-31T00:13:06.842Z,15.60
2022-08-31T00:15:35.263Z,15.60
2022-08-31T00:18:02.586Z,15.60
2022-08-31T00:20:33.572Z,15.70
2022-08-31T00:23:06.840Z,15.70
2022-08-31T00:25:34.901Z,15.70
2022-08-31T00:28:02.528Z,15.70
2022-08-31T00:30:30.372Z,15.70
2022-08-31T00:32:58.554Z,15.70
2022-08-31T00:35:27.112Z,15.70
2022-08-31T00:37:54.283Z,15.70
2022-08-31T00:40:21.377Z,15.70
2022-08-31T00:42:48.181Z,15.70
2022-08-31T00:45:15.778Z,15.70
2022-08-31T00:47:43.006Z,15.70
2022-08-31T00:50:13.435Z,15.70
2022-08-31T00:52:45.713Z,15.70
2022-08-31T00:55:16.888Z,15.70
2022-08-31T00:57:47.851Z,15.70
2022-08-31T01:00:19.172Z,15.70
2022-08-31T01:02:46.704Z,15.70
2022-08-31T01:05:15.316Z,15.70
2022-08-31T01:07:44.063Z,15.70
2022-08-31T01:10:11.345Z,15.70
2022-08-31T01:12:38.407Z,15.70
2022-08-31T01:15:07.308Z,15.80
2022-08-31T01:17:35.426Z,15.80
2022-08-31T01:20:22.713Z,15.80
2022-08-31T01:22:55.281Z,15.90
2022-08-31T01:25:22.228Z,15.90
2022-08-31T01:27:49.151Z,15.90
2022-08-31T01:30:23.572Z,16.00
2022-08-31T01:32:50.545Z,16.00
2022-08-31T01:35:17.820Z,16.10
2022-08-31T01:37:44.852Z,16.10
2022-08-31T01:40:12.674Z,16.10
2022-08-31T01:42:39.589Z,16.10
2022-08-31T01:45:07.187Z,16.10
2022-08-31T01:47:34.287Z,16.20
2022-08-31T01:50:01.164Z,16.20
2022-08-31T01:52:28.564Z,16.20
2022-08-31T01:54:56.247Z,16.20
2022-08-31T01:57:33.298Z,16.20
2022-08-31T02:00:04.196Z,16.30
2022-08-31T02:02:31.926Z,16.20
2022-08-31T02:04:59.095Z,16.30
2022-08-31T02:07:26.655Z,16.20
2022-08-31T02:09:54.755Z,16.20
2022-08-31T02:12:21.532Z,16.20
2022-08-31T02:14:48.340Z,16.20
2022-08-31T02:17:15.196Z,16.20
2022-08-31T02:19:42.029Z,16.20
2022-08-31T02:22:08.784Z,16.20
2022-08-31T02:24:35.620Z,16.20
2022-08-31T02:27:02.404Z,16.20
2022-08-31T02:29:29.502Z,16.20
2022-08-31T02:31:58.424Z,16.20
2022-08-31T02:34:25.752Z,16.30
2022-08-31T02:36:52.543Z,16.30
2022-08-31T02:39:19.319Z,16.30
2022-08-31T02:41:46.216Z,16.30
2022-08-31T02:44:13.124Z,16.30
2022-08-31T02:46:40.120Z,16.30
2022-08-31T02:49:07.128Z,16.40
2022-08-31T02:51:33.939Z,16.40
2022-08-31T02:54:00.709Z,16.40
2022-08-31T02:56:27.548Z,16.40
2022-08-31T02:58:55.219Z,16.40
2022-08-31T03:01:24.128Z,16.40
2022-08-31T03:03:51.095Z,16.40
2022-08-31T03:06:19.660Z,16.40
2022-08-31T03:08:47.512Z,16.50
2022-08-31T03:11:14.868Z,16.50
2022-08-31T03:13:42.503Z,16.50
2022-08-31T03:16:10.025Z,16.50
2022-08-31T03:18:36.892Z,16.50
2022-08-31T03:21:03.772Z,16.50
2022-08-31T03:23:30.900Z,16.50
2022-08-31T03:25:57.744Z,16.50
2022-08-31T03:28:24.528Z,16.50
2022-08-31T03:30:51.392Z,16.40
2022-08-31T03:33:18.362Z,16.40
2022-08-31T03:35:46.129Z,16.40
2022-08-31T03:38:14.059Z,16.40
2022-08-31T03:40:42.424Z,16.30
2022-08-31T03:43:11.467Z,16.30
2022-08-31T03:45:40.877Z,16.40
2022-08-31T03:48:12.526Z,16.30
2022-08-31T03:50:40.741Z,16.30
2022-08-31T03:53:08.613Z,16.30
2022-08-31T03:55:38.388Z,16.30
2022-08-31T03:58:05.978Z,16.30
2022-08-31T04:00:34.103Z,16.30
2022-08-31T04:03:01.666Z,16.20
2022-08-31T04:05:34.327Z,16.20
2022-08-31T04:08:01.136Z,16.20
2022-08-31T04:10:27.988Z,16.20
2022-08-31T04:12:54.767Z,16.20
2022-08-31T04:15:22.688Z,16.20
2022-08-31T04:17:55.014Z,16.20
2022-08-31T04:20:24.436Z,16.20
2022-08-31T04:22:56.872Z,16.20
2022-08-31T04:25:23.607Z,16.20
2022-08-31T04:27:50.433Z,16.10
2022-08-31T04:30:17.709Z,16.20
2022-08-31T04:32:44.503Z,16.20
2022-08-31T04:35:11.289Z,16.20
2022-08-31T04:37:40.487Z,16.20
2022-08-31T04:40:19.020Z,16.20
2022-08-31T04:42:47.684Z,16.20
2022-08-31T04:45:15.946Z,16.30
2022-08-31T04:47:43.192Z,16.30
2022-08-31T04:50:11.585Z,16.30
2022-08-31T04:52:38.441Z,16.40
2022-08-31T04:55:06.118Z,16.40
2022-08-31T04:57:35.679Z,16.40
2022-08-31T05:00:05.683Z,16.40
2022-08-31T05:02:35.749Z,16.40
2022-08-31T05:05:03.516Z,16.50
2022-08-31T05:07:30.500Z,16.50
2022-08-31T05:09:57.313Z,16.50
2022-08-31T05:12:24.072Z,16.60
2022-08-31T05:14:51.314Z,16.60
2022-08-31T05:17:18.103Z,16.60
2022-08-31T05:19:45.216Z,16.70
2022-08-31T05:22:12.084Z,16.80
2022-08-31T05:24:38.957Z,16.80
2022-08-31T05:27:06.479Z,16.80
2022-08-31T05:29:33.216Z,16.80
2022-08-31T05:32:00.032Z,16.90
2022-08-31T05:34:27.080Z,17.00
2022-08-31T05:36:55.692Z,17.00
2022-08-31T05:39:24.022Z,17.00
2022-08-31T05:41:50.837Z,17.10
2022-08-31T05:44:19.001Z,17.10
2022-08-31T05:46:52.255Z,17.10
2022-08-31T05:49:24.136Z,17.10
2022-08-31T05:51:57.097Z,17.20
2022-08-31T05:54:23.955Z,17.20
2022-08-31T05:56:50.736Z,17.20
2022-08-31T05:59:17.612Z,17.30
2022-08-31T06:01:45.516Z,17.40
2022-08-31T06:04:12.653Z,17.40
2022-08-31T06:06:39.620Z,17.40
2022-08-31T06:09:08.378Z,17.50
2022-08-31T06:11:35.536Z,17.60
2022-08-31T06:14:03.900Z,17.60
2022-08-31T06:16:32.314Z,17.70
2022-08-31T06:19:00.423Z,17.80
2022-08-31T06:21:36.027Z,17.90
2022-08-31T06:24:05.423Z,18.00
2022-08-31T06:26:34.851Z,18.20
2022-08-31T06:29:05.004Z,18.30
2022-08-31T06:31:35.905Z,18.40
2022-08-31T06:34:04.244Z,18.60
2022-08-31T06:36:32.588Z,18.70
2022-08-31T06:39:01.290Z,18.80
2022-08-31T06:41:36.248Z,18.80
2022-08-31T06:44:06.216Z,18.80
2022-08-31T06:46:34.110Z,18.80
2022-08-31T06:49:01.046Z,18.80
2022-08-31T06:51:28.960Z,18.80
2022-08-31T06:54:04.408Z,18.80
2022-08-31T06:56:43.423Z,18.70
2022-08-31T06:59:10.252Z,18.70
2022-08-31T07:01:37.414Z,18.70
2022-08-31T07:04:07.091Z,18.70
2022-08-31T07:06:41.024Z,18.60
2022-08-31T07:09:10.445Z,18.60
2022-08-31T07:11:44.342Z,18.60
2022-08-31T07:14:14.865Z,18.50
2022-08-31T07:16:43.003Z,18.50
2022-08-31T07:19:11.209Z,18.50
2022-08-31T07:21:52.639Z,18.60
2022-08-31T07:24:25.734Z,18.60
2022-08-31T07:26:58.084Z,18.60
2022-08-31T07:29:30.156Z,18.70
2022-08-31T07:31:59.245Z,18.70
2022-08-31T07:34:29.031Z,18.70
2022-08-31T07:37:16.000Z,18.80
2022-08-31T07:40:16.832Z,18.80
2022-08-31T07:42:46.712Z,18.90
2022-08-31T07:45:23.171Z,19.00
2022-08-31T07:47:51.945Z,19.20
2022-08-31T07:50:20.234Z,19.30
2022-08-31T07:52:54.148Z,19.50
2022-08-31T07:55:25.086Z,19.70
2022-08-31T07:57:54.725Z,19.80
2022-08-31T08:00:25.039Z,20.00
2022-08-31T08:02:53.984Z,20.10
2022-08-31T08:05:26.830Z,20.10
2022-08-31T08:07:58.624Z,20.10
2022-08-31T08:10:26.204Z,20.10
2022-08-31T08:13:11.636Z,20.10
2022-08-31T08:15:38.767Z,20.10
2022-08-31T08:18:07.244Z,20.10
2022-08-31T08:20:37.730Z,20.00
2022-08-31T08:23:18.329Z,19.90
2022-08-31T08:25:46.460Z,19.90
2022-08-31T08:31:05.855Z,19.90
2022-08-31T08:33:34.845Z,20.00
2022-08-31T08:36:04.712Z,20.00
2022-08-31T08:38:32.034Z,20.00
2022-08-31T08:41:01.703Z,20.10
2022-08-31T08:43:35.632Z,20.20
2022-08-31T08:46:25.187Z,20.30
2022-08-31T08:48:55.334Z,20.40
2022-08-31T08:51:29.171Z,20.40
2022-08-31T08:54:03.241Z,20.50
2022-08-31T08:56:33.906Z,20.70
2022-08-31T08:59:01.276Z,20.80
2022-08-31T09:01:29.652Z,20.90
2022-08-31T09:04:25.983Z,21.10
2022-08-31T09:07:11.767Z,21.20
2022-08-31T09:09:57.243Z,21.50
2022-08-31T09:12:33.840Z,21.80
2022-08-31T09:15:28.357Z,22.20
2022-08-31T09:18:10.535Z,22.30
2022-08-31T09:20:38.081Z,22.40
2022-08-31T09:23:07.991Z,22.50
2022-08-31T09:25:52.204Z,22.60
2022-08-31T09:28:37.113Z,22.50
2022-08-31T09:31:04.393Z,22.50
2022-08-31T09:33:44.523Z,22.40
2022-08-31T09:36:19.807Z,22.30
2022-08-31T09:38:47.492Z,22.10
2022-08-31T09:41:30.568Z,21.90
2022-08-31T09:44:22.180Z,21.90
2022-08-31T09:46:52.138Z,21.90
2022-08-31T09:49:22.684Z,21.90
2022-08-31T09:51:49.543Z,21.90
2022-08-31T09:54:34.864Z,22.00
2022-08-31T09:57:04.484Z,22.10
2022-08-31T09:59:48.057Z,22.20
2022-08-31T10:02:26.755Z,22.30
2022-08-31T10:04:55.986Z,22.30
2022-08-31T10:07:37.666Z,22.30
2022-08-31T10:10:28.392Z,22.20
2022-08-31T10:13:44.803Z,22.00
2022-08-31T10:16:30.561Z,21.70
2022-08-31T10:19:30.310Z,21.40
2022-08-31T10:22:02.464Z,21.20
2022-08-31T10:24:46.099Z,21.10
2022-08-31T10:27:38.477Z,21.00
2022-08-31T10:30:23.743Z,20.80
2022-08-31T10:33:24.207Z,20.70
2022-08-31T10:35:55.139Z,20.60
2022-08-31T10:38:36.243Z,20.50
2022-08-31T10:41:02.967Z,20.50
2022-08-31T10:43:53.606Z,20.50
2022-08-31T10:46:20.882Z,20.50
2022-08-31T10:48:55.009Z,20.60
2022-08-31T10:51:45.127Z,20.50
2022-08-31T10:54:22.048Z,20.50
2022-08-31T10:57:07.435Z,20.50
2022-08-31T10:59:46.072Z,20.40
2022-08-31T11:02:52.964Z,20.30
2022-08-31T11:05:35.205Z,20.20
2022-08-31T11:08:35.735Z,20.00
2022-08-31T11:11:05.959Z,19.90
2022-08-31T11:13:36.217Z,19.70
2022-08-31T11:16:06.294Z,19.70
2022-08-31T11:18:50.709Z,19.60
2022-08-31T11:21:36.251Z,19.50
2022-08-31T11:24:09.611Z,19.40
2022-08-31T11:26:40.416Z,19.30
2022-08-31T11:29:13.317Z,19.20
2022-08-31T11:31:40.961Z,19.10
2022-08-31T11:34:16.333Z,18.90
2022-08-31T11:36:49.939Z,18.70
2022-08-31T11:39:16.603Z,18.60
2022-08-31T11:41:46.803Z,18.50
2022-08-31T11:44:29.832Z,18.30
2022-08-31T11:47:05.044Z,18.30
2022-08-31T11:49:46.701Z,18.20
2022-08-31T11:52:25.436Z,18.20
2022-08-31T11:54:52.664Z,18.20
2022-08-31T11:57:21.363Z,18.20
2022-08-31T11:59:48.923Z,18.20
2022-08-31T12:02:22.838Z,18.30
2022-08-31T12:04:52.013Z,18.30
2022-08-31T12:07:38.810Z,18.40
2022-08-31T12:10:27.463Z,18.40
2022-08-31T12:13:09.412Z,18.40
2022-08-31T12:15:36.155Z,18.40
2022-08-31T12:18:09.960Z,18.40
2022-08-31T12:21:08.499Z,18.40
2022-08-31T12:23:35.391Z,18.30
2022-08-31T12:26:14.376Z,18.30
2022-08-31T12:28:41.029Z,18.40
2022-08-31T12:31:12.788Z,18.40
2022-08-31T12:33:44.776Z,18.40
2022-08-31T12:36:13.056Z,18.40
2022-08-31T12:38:39.752Z,18.40
2022-08-31T12:41:09.184Z,18.40
2022-08-31T12:43:46.086Z,18.30
2022-08-31T12:46:12.820Z,18.30
2022-08-31T12:48:54.838Z,18.30
2022-08-31T12:51:21.498Z,18.20
2022-08-31T12:53:51.205Z,18.10
2022-08-31T12:56:25.998Z,18.10
2022-08-31T12:58:52.635Z,18.10
2022-08-31T13:01:24.216Z,18.00
2022-08-31T13:03:54.680Z,18.00
2022-08-31T13:06:26.059Z,18.00
2022-08-31T13:08:55.615Z,18.00
2022-08-31T13:11:26.155Z,17.90
2022-08-31T13:14:13.867Z,17.80
2022-08-31T13:16:42.583Z,17.70
2022-08-31T13:19:16.861Z,17.60
2022-08-31T13:21:48.455Z,17.50
2022-08-31T13:24:15.120Z,17.40
2022-08-31T13:26:43.816Z,17.30
2022-08-31T13:29:15.784Z,17.20
2022-08-31T13:31:50.628Z,17.10
2022-08-31T13:34:19.164Z,17.00
2022-08-31T13:36:53.247Z,17.00
2022-08-31T13:39:28.440Z,16.90
2022-08-31T13:41:58.163Z,16.90
2022-08-31T13:44:31.784Z,16.80
2022-08-31T13:47:01.232Z,16.80
2022-08-31T13:49:35.762Z,16.90
2022-08-31T13:52:07.785Z,16.80
2022-08-31T13:54:35.962Z,16.70
2022-08-31T13:57:19.481Z,16.80
2022-08-31T13:59:46.880Z,16.70
2022-08-31T14:02:16.131Z,16.80
2022-08-31T14:04:49.394Z,16.80
2022-08-31T14:07:21.601Z,16.80
2022-08-31T14:09:50.696Z,16.90
2022-08-31T14:12:34.741Z,16.80
2022-08-31T14:15:10.628Z,16.90
2022-08-31T14:18:23.898Z,16.90
2022-08-31T14:20:36.071Z,16.80
2022-08-31T14:23:19.547Z,16.90
2022-08-31T14:25:46.320Z,16.90
2022-08-31T14:28:13.004Z,16.90
2022-08-31T14:30:40.682Z,17.00
2022-08-31T14:33:12.857Z,17.10
2022-08-31T14:35:40.688Z,17.10
2022-08-31T14:38:07.361Z,17.20
2022-08-31T14:40:35.905Z,17.30
2022-08-31T14:43:02.688Z,17.30
2022-08-31T14:45:29.341Z,17.30
2022-08-31T14:47:56.077Z,17.20
2022-08-31T14:50:25.410Z,17.20
2022-08-31T14:52:53.070Z,17.20
2022-08-31T14:55:20.268Z,17.20
2022-08-31T14:57:58.695Z,17.20
2022-08-31T15:00:25.993Z,17.20
2022-08-31T15:02:56.187Z,17.20
2022-08-31T15:05:24.594Z,17.30
2022-08-31T15:07:52.935Z,17.30
2022-08-31T15:10:21.048Z,17.40
2022-08-31T15:12:48.677Z,17.30
2022-08-31T15:15:20.564Z,17.30
2022-08-31T15:17:49.056Z,17.40
2022-08-31T15:20:19.586Z,17.40
2022-08-31T15:22:47.836Z,17.30
2022-08-31T15:25:15.125Z,17.30
2022-08-31T15:27:44.355Z,17.30
2022-08-31T15:30:12.178Z,17.20
2022-08-31T15:32:39.920Z,17.30
2022-08-31T15:35:07.637Z,17.40
2022-08-31T15:37:34.341Z,17.40
2022-08-31T15:40:02.009Z,17.40
2022-08-31T15:42:31.635Z,17.50
2022-08-31T15:44:58.859Z,17.50
2022-08-31T15:47:45.558Z,17.50
2022-08-31T15:50:12.336Z,17.50
2022-08-31T15:52:43.876Z,17.50
2022-08-31T15:55:21.557Z,17.50
2022-08-31T15:57:48.343Z,17.60
2022-08-31T16:00:15.123Z,17.50
2022-08-31T16:02:42.124Z,17.50
2022-08-31T16:05:09.869Z,17.40
2022-08-31T16:07:37.319Z,17.40
2022-08-31T16:10:11.288Z,17.30
2022-08-31T16:12:38.875Z,17.30
2022-08-31T16:15:06.291Z,17.30
2022-08-31T16:17:32.948Z,17.20
2022-08-31T16:19:59.645Z,17.20
2022-08-31T16:22:28.307Z,17.10
2022-08-31T16:24:57.463Z,17.10
2022-08-31T16:27:24.212Z,17.10
2022-08-31T16:29:51.597Z,17.00
2022-08-31T16:32:18.471Z,17.00
2022-08-31T16:34:45.507Z,17.00
2022-08-31T16:37:12.190Z,17.00
2022-08-31T16:39:43.279Z,17.00
2022-08-31T16:42:14.365Z,17.00
2022-08-31T16:44:43.709Z,16.90
2022-08-31T16:47:11.056Z,16.90
2022-08-31T16:49:40.445Z,16.90
2022-08-31T16:52:09.922Z,16.80
2022-08-31T16:54:42.162Z,16.80
2022-08-31T16:57:09.650Z,16.80
2022-08-31T16:59:41.056Z,16.70
2022-08-31T17:02:09.793Z,16.70
2022-08-31T17:04:54.162Z,16.60
2022-08-31T17:07:21.986Z,16.60
2022-08-31T17:09:48.741Z,16.60
2022-08-31T17:12:19.139Z,16.60
2022-08-31T17:14:48.251Z,16.50
2022-08-31T17:17:19.410Z,16.50
2022-08-31T17:19:46.407Z,16.40
2022-08-31T17:22:21.478Z,16.40
2022-08-31T17:24:49.435Z,16.30
2022-08-31T17:27:17.514Z,16.30
2022-08-31T17:29:47.964Z,16.20
2022-08-31T17:32:16.401Z,16.20
2022-08-31T17:34:43.243Z,16.20
2022-08-31T17:37:13.058Z,16.10
2022-08-31T17:39:43.956Z,16.10
2022-08-31T17:42:15.119Z,16.10
2022-08-31T17:44:44.752Z,16.00
2022-08-31T17:47:11.486Z,16.00
2022-08-31T17:49:42.109Z,16.00
2022-08-31T17:52:11.539Z,16.00
2022-08-31T17:54:41.923Z,16.00
2022-08-31T17:57:12.955Z,16.00
2022-08-31T17:59:40.877Z,16.00
2022-08-31T18:02:09.726Z,16.00
2022-08-31T18:04:36.655Z,16.00
2022-08-31T18:07:03.428Z,15.90
2022-08-31T18:09:32.049Z,16.00
2022-08-31T18:11:59.495Z,15.90
2022-08-31T18:14:27.320Z,15.90
2022-08-31T18:16:55.520Z,15.90
2022-08-31T18:19:27.595Z,15.90
2022-08-31T18:21:55.730Z,15.90
2022-08-31T18:24:22.439Z,15.90
2022-08-31T18:26:49.992Z,15.90
2022-08-31T18:29:20.532Z,15.80
2022-08-31T18:31:51.143Z,15.80
2022-08-31T18:34:18.963Z,15.80
2022-08-31T18:36:45.705Z,15.80
2022-08-31T18:39:13.772Z,15.80
2022-08-31T18:41:59.262Z,15.70
2022-08-31T18:44:44.340Z,15.80
2022-08-31T18:47:11.870Z,15.80
2022-08-31T18:49:40.088Z,15.80
2022-08-31T18:52:08.260Z,15.70
2022-08-31T18:54:35.295Z,15.70
2022-08-31T18:57:01.956Z,15.80
2022-08-31T18:59:28.699Z,15.80
2022-08-31T19:01:55.604Z,15.70
2022-08-31T19:04:22.423Z,15.70
2022-08-31T19:06:49.143Z,15.70
2022-08-31T19:09:15.839Z,15.70
2022-08-31T19:11:46.703Z,15.70
2022-08-31T19:14:14.792Z,15.70
2022-08-31T19:16:42.308Z,15.60
2022-08-31T19:19:10.070Z,15.60
2022-08-31T19:21:37.219Z,15.60
2022-08-31T19:24:05.355Z,15.60
2022-08-31T19:26:37.586Z,15.60
2022-08-31T19:29:08.691Z,15.60
2022-08-31T19:31:38.201Z,15.60
2022-08-31T19:34:05.488Z,15.60
2022-08-31T19:36:32.888Z,15.50
2022-08-31T19:39:00.400Z,15.60
2022-08-31T19:41:27.709Z,15.60
2022-08-31T19:44:05.623Z,15.60
2022-08-31T19:46:34.744Z,15.50
2022-08-31T19:49:01.474Z,15.50
2022-08-31T19:51:29.114Z,15.50
2022-08-31T19:53:56.108Z,15.50
2022-08-31T19:56:24.029Z,15.50
2022-08-31T19:58:51.869Z,15.40
2022-08-31T20:01:19.542Z,15.40
2022-08-31T20:03:48.073Z,15.40
2022-08-31T20:06:15.973Z,15.40
2022-08-31T20:08:43.271Z,15.40
2022-08-31T20:11:11.211Z,15.40
2022-08-31T20:13:38.840Z,15.40
2022-08-31T20:16:05.654Z,15.50
2022-08-31T20:18:32.331Z,15.40
2022-08-31T20:21:01.037Z,15.40
2022-08-31T20:23:30.124Z,15.40
2022-08-31T20:25:57.700Z,15.50
2022-08-31T20:28:26.846Z,15.40
2022-08-31T20:30:59.033Z,15.50
2022-08-31T20:33:26.859Z,15.40
2022-08-31T20:35:53.699Z,15.50
2022-08-31T20:38:20.387Z,15.40
2022-08-31T20:40:48.183Z,15.40
2022-08-31T20:43:14.994Z,15.40
2022-08-31T20:45:41.920Z,15.40
2022-08-31T20:48:28.331Z,15.40
2022-08-31T20:50:56.027Z,15.40
2022-08-31T20:53:42.785Z,15.40
2022-08-31T20:56:11.290Z,15.40
2022-08-31T20:58:44.894Z,15.40
2022-08-31T21:01:13.557Z,15.40
2022-08-31T21:03:40.912Z,15.40
2022-08-31T21:06:08.387Z,15.40
2022-08-31T21:08:38.181Z,15.40
2022-08-31T21:11:11.356Z,15.30
2022-08-31T21:13:38.065Z,15.40
2022-08-31T21:16:04.800Z,15.40
2022-08-31T21:18:34.583Z,15.30
2022-08-31T21:21:08.407Z,15.40
2022-08-31T21:23:36.092Z,15.30
2022-08-31T21:26:03.088Z,15.40
2022-08-31T21:28:30.662Z,15.40
2022-08-31T21:31:08.998Z,15.40
2022-08-31T21:33:43.179Z,15.40
2022-08-31T21:36:11.321Z,15.40
2022-08-31T21:38:38.538Z,15.40
2022-08-31T21:41:05.776Z,15.40
2022-08-31T21:43:32.441Z,15.40
2022-08-31T21:46:02.194Z,15.40
2022-08-31T21:48:29.766Z,15.40
2022-08-31T21:50:56.639Z,15.40
2022-08-31T21:53:25.742Z,15.40
2022-08-31T21:55:52.896Z,15.40
2022-08-31T21:58:19.559Z,15.40
2022-08-31T22:00:48.333Z,15.40
2022-08-31T22:03:15.985Z,15.40
2022-08-31T22:05:43.513Z,15.40
2022-08-31T22:08:10.522Z,15.40
2022-08-31T22:10:44.046Z,15.40
2022-08-31T22:13:12.140Z,15.40
2022-08-31T22:15:39.481Z,15.40
2022-08-31T22:18:45.932Z,15.50
2022-08-31T22:20:54.911Z,15.40
2022-08-31T22:23:21.558Z,15.40
2022-08-31T22:25:48.899Z,15.40
2022-08-31T22:28:15.556Z,15.40
2022-08-31T22:30:42.937Z,15.40
2022-08-31T22:33:11.091Z,15.40
2022-08-31T22:35:38.965Z,15.40
2022-08-31T22:38:06.599Z,15.40
2022-08-31T22:40:36.416Z,15.40
2022-08-31T22:43:05.694Z,15.40
2022-08-31T22:45:32.532Z,15.40
2022-08-31T22:47:59.266Z,15.30
2022-08-31T22:50:26.027Z,15.30
2022-08-31T22:52:52.745Z,15.30
2022-08-31T22:55:19.407Z,15.30
2022-08-31T22:57:46.092Z,15.20
2022-08-31T23:00:13.128Z,15.30
2022-08-31T23:02:44.847Z,15.20
2022-08-31T23:05:12.691Z,15.20
2022-08-31T23:07:39.520Z,15.20
2022-08-31T23:10:06.592Z,15.20
2022-08-31T23:12:33.755Z,15.20
2022-08-31T23:15:00.430Z,15.20
2022-08-31T23:17:27.120Z,15.20
2022-08-31T23:19:54.252Z,15.20
2022-08-31T23:22:22.043Z,15.20
2022-08-31T23:24:51.796Z,15.20
2022-08-31T23:27:19.770Z,15.20
2022-08-31T23:29:49.233Z,15.20
2022-08-31T23:32:18.731Z,15.20
2022-08-31T23:34:46.684Z,15.20
2022-08-31T23:37:14.166Z,15.20
2022-08-31T23:39:43.600Z,15.20
2022-08-31T23:42:12.073Z,15.30
2022-08-31T23:44:42.603Z,15.30
2022-08-31T23:47:13.797Z,15.30
2022-08-31T23:49:42.203Z,15.30
2022-08-31T23:52:11.891Z,15.30
2022-08-31T23:54:39.063Z,15.30
2022-08-31T23:57:08.444Z,15.30
2022-08-31T23:59:52.711Z,15.30
